createdAt,value
2022-12-31T00:00:07.794Z,35.2910
2022-12-31T00:00:18.982Z,35.2650
2022-12-31T00:00:30.154Z,35.2590
2022-12-31T00:00:41.303Z,35.2650
2022-12-31T00:00:52.411Z,35.2590
2022-12-31T00:01:03.486Z,35.2700
2022-12-31T00:01:14.558Z,35.2070
2022-12-31T00:01:25.641Z,35.1970
2022-12-31T00:01:36.719Z,35.2210
2022-12-31T00:01:47.803Z,35.2270
2022-12-31T00:01:59.019Z,35.2210
2022-12-31T00:02:10.491Z,35.2440
2022-12-31T00:02:21.654Z,35.2550
2022-12-31T00:02:32.903Z,35.2550
2022-12-31T00:02:44.154Z,35.2420
2022-12-31T00:02:55.363Z,35.2270
2022-12-31T00:03:06.558Z,35.2160
2022-12-31T00:03:17.846Z,35.2100
2022-12-31T00:03:29.156Z,35.2270
2022-12-31T00:03:40.225Z,35.2610
2022-12-31T00:03:51.278Z,35.2760
2022-12-31T00:04:02.340Z,35.2530
2022-12-31T00:04:13.437Z,35.2550
2022-12-31T00:04:24.585Z,35.2500
2022-12-31T00:04:35.645Z,35.2270
2022-12-31T00:04:46.719Z,35.2530
2022-12-31T00:04:57.788Z,35.2650
2022-12-31T00:05:08.851Z,35.2810
2022-12-31T00:05:19.909Z,35.2810
2022-12-31T00:05:30.948Z,35.2810
2022-12-31T00:05:42.019Z,35.2870
2022-12-31T00:05:53.099Z,35.2760
2022-12-31T00:06:04.172Z,35.2930
2022-12-31T00:06:15.297Z,35.2700
2022-12-31T00:06:26.377Z,35.2590
2022-12-31T00:06:37.457Z,35.2530
2022-12-31T00:06:48.508Z,35.2420
2022-12-31T00:06:59.548Z,35.2290
2022-12-31T00:07:10.659Z,35.2370
2022-12-31T00:07:21.750Z,35.2220
2022-12-31T00:07:47.801Z,35.2170
2022-12-31T00:07:58.858Z,35.6010
2022-12-31T00:08:09.917Z,35.3980
2022-12-31T00:08:20.985Z,35.3240
2022-12-31T00:08:32.038Z,35.3140
2022-12-31T00:08:43.097Z,35.3090
2022-12-31T00:08:54.161Z,35.3490
2022-12-31T00:09:05.239Z,35.3770
2022-12-31T00:09:16.298Z,35.4170
2022-12-31T00:09:27.366Z,35.4410
2022-12-31T00:09:38.450Z,35.4410
2022-12-31T00:09:49.514Z,35.4520
2022-12-31T00:10:00.601Z,35.4630
2022-12-31T00:10:11.649Z,35.4750
2022-12-31T00:10:22.730Z,35.4970
2022-12-31T00:10:33.816Z,35.4910
2022-12-31T00:10:44.881Z,35.4690
2022-12-31T00:10:55.934Z,35.4970
2022-12-31T00:11:06.977Z,35.4910
2022-12-31T00:11:18.038Z,35.5150
2022-12-31T00:11:29.118Z,35.5430
2022-12-31T00:11:40.177Z,35.6130
2022-12-31T00:11:51.212Z,35.6890
2022-12-31T00:12:02.289Z,35.6950
2022-12-31T00:12:13.406Z,35.6610
2022-12-31T00:12:24.452Z,35.6450
2022-12-31T00:12:35.524Z,35.6390
2022-12-31T00:12:46.581Z,35.6500
2022-12-31T00:12:57.653Z,35.6500
2022-12-31T00:13:08.762Z,35.6730
2022-12-31T00:13:19.817Z,35.6290
2022-12-31T00:13:30.881Z,35.6410
2022-12-31T00:13:41.943Z,35.6810
2022-12-31T00:13:53.033Z,35.6980
2022-12-31T00:14:04.109Z,35.6810
2022-12-31T00:14:15.159Z,35.6520
2022-12-31T00:14:26.230Z,35.6630
2022-12-31T00:14:37.297Z,35.6630
2022-12-31T00:14:48.360Z,35.6240
2022-12-31T00:14:59.425Z,35.6010
2022-12-31T00:15:10.478Z,35.6240
2022-12-31T00:15:21.559Z,35.6290
2022-12-31T00:15:32.633Z,35.5960
2022-12-31T00:15:43.691Z,35.6010
2022-12-31T00:15:54.750Z,35.5960
2022-12-31T00:16:11.787Z,35.5880
2022-12-31T00:16:22.850Z,35.7900
2022-12-31T00:16:33.944Z,35.7530
2022-12-31T00:16:45.030Z,35.6950
2022-12-31T00:16:56.151Z,35.6560
2022-12-31T00:17:07.254Z,35.6460
2022-12-31T00:17:18.340Z,35.6740
2022-12-31T00:17:29.426Z,35.6930
2022-12-31T00:17:40.478Z,35.6610
2022-12-31T00:17:51.552Z,35.6730
2022-12-31T00:18:02.632Z,35.6780
2022-12-31T00:18:13.688Z,35.6610
2022-12-31T00:18:24.756Z,35.6840
2022-12-31T00:18:35.835Z,35.7010
2022-12-31T00:18:46.861Z,35.7010
2022-12-31T00:18:57.952Z,35.6730
2022-12-31T00:19:09.016Z,35.6730
2022-12-31T00:19:20.075Z,35.6450
2022-12-31T00:19:31.132Z,35.6560
2022-12-31T00:19:42.219Z,35.7120
2022-12-31T00:19:53.321Z,35.7420
2022-12-31T00:20:04.372Z,35.7470
2022-12-31T00:20:15.433Z,35.7250
2022-12-31T00:20:26.494Z,35.7190
2022-12-31T00:20:37.559Z,35.7300
2022-12-31T00:20:48.622Z,35.7250
2022-12-31T00:20:59.687Z,35.6930
2022-12-31T00:21:10.753Z,35.7160
2022-12-31T00:21:21.836Z,35.7100
2022-12-31T00:21:32.913Z,35.7010
2022-12-31T00:21:43.975Z,35.7120
2022-12-31T00:21:55.041Z,35.7010
2022-12-31T00:22:06.130Z,35.7010
2022-12-31T00:22:17.208Z,35.7250
2022-12-31T00:22:28.369Z,35.7160
2022-12-31T00:22:39.435Z,35.6930
2022-12-31T00:22:50.536Z,35.6470
2022-12-31T00:23:01.747Z,35.6880
2022-12-31T00:23:12.813Z,35.6990
2022-12-31T00:23:23.887Z,35.6710
2022-12-31T00:23:34.951Z,35.6650
2022-12-31T00:23:46.009Z,35.6930
2022-12-31T00:23:57.078Z,35.6990
2022-12-31T00:24:08.183Z,35.6770
2022-12-31T00:24:19.244Z,35.6670
2022-12-31T00:24:30.300Z,35.6670
2022-12-31T00:24:41.365Z,35.6730
2022-12-31T00:24:52.456Z,35.6950
2022-12-31T00:25:03.524Z,35.7010
2022-12-31T00:25:14.608Z,35.7010
2022-12-31T00:25:25.689Z,35.6890
2022-12-31T00:25:36.765Z,35.7060
2022-12-31T00:25:47.809Z,35.7060
2022-12-31T00:25:58.887Z,35.6890
2022-12-31T00:26:09.965Z,35.6560
2022-12-31T00:26:21.059Z,35.6500
2022-12-31T00:26:32.136Z,35.6670
2022-12-31T00:26:43.213Z,35.6670
2022-12-31T00:26:54.267Z,35.6560
2022-12-31T00:27:05.354Z,35.6390
2022-12-31T00:27:16.416Z,35.6150
2022-12-31T00:27:27.482Z,35.5930
2022-12-31T00:27:38.590Z,35.6040
2022-12-31T00:27:49.667Z,35.6150
2022-12-31T00:28:00.716Z,35.6390
2022-12-31T00:28:11.787Z,35.6330
2022-12-31T00:28:22.856Z,35.6260
2022-12-31T00:28:33.937Z,35.6210
2022-12-31T00:28:45.023Z,35.6260
2022-12-31T00:28:56.067Z,35.6260
2022-12-31T00:29:07.128Z,35.6450
2022-12-31T00:29:18.189Z,35.6450
2022-12-31T00:29:29.275Z,35.6610
2022-12-31T00:29:40.346Z,35.6610
2022-12-31T00:29:51.381Z,35.6840
2022-12-31T00:30:04.639Z,35.6670
2022-12-31T00:30:16.441Z,35.7810
2022-12-31T00:30:27.515Z,35.7470
2022-12-31T00:30:38.684Z,35.7120
2022-12-31T00:30:49.772Z,35.7360
2022-12-31T00:31:00.835Z,35.7300
2022-12-31T00:31:11.933Z,35.7190
2022-12-31T00:31:23.068Z,35.7190
2022-12-31T00:31:34.152Z,35.7120
2022-12-31T00:31:45.215Z,35.7120
2022-12-31T00:31:56.284Z,35.7420
2022-12-31T00:32:07.359Z,35.7530
2022-12-31T00:32:18.431Z,35.7590
2022-12-31T00:32:29.520Z,35.7740
2022-12-31T00:32:40.705Z,35.7510
2022-12-31T00:32:51.780Z,35.7160
2022-12-31T00:33:02.855Z,35.6990
2022-12-31T00:33:13.900Z,35.7160
2022-12-31T00:33:24.972Z,35.7250
2022-12-31T00:33:36.094Z,35.6780
2022-12-31T00:33:47.139Z,35.6560
2022-12-31T00:33:58.206Z,35.6950
2022-12-31T00:34:09.277Z,35.6950
2022-12-31T00:34:20.322Z,35.6670
2022-12-31T00:34:31.401Z,35.6500
2022-12-31T00:34:42.495Z,35.6610
2022-12-31T00:34:53.562Z,35.6890
2022-12-31T00:35:04.633Z,35.7120
2022-12-31T00:35:15.686Z,35.7640
2022-12-31T00:35:26.762Z,35.7810
2022-12-31T00:35:37.838Z,35.8110
2022-12-31T00:35:48.882Z,35.8330
2022-12-31T00:35:59.974Z,35.8330
2022-12-31T00:36:11.063Z,35.7960
2022-12-31T00:36:22.164Z,35.7850
2022-12-31T00:36:33.250Z,35.7620
2022-12-31T00:36:44.307Z,35.7570
2022-12-31T00:36:55.371Z,35.7270
2022-12-31T00:37:06.437Z,35.6990
2022-12-31T00:37:17.511Z,35.6880
2022-12-31T00:37:28.603Z,35.6580
2022-12-31T00:37:39.687Z,35.6650
2022-12-31T00:37:50.792Z,35.6880
2022-12-31T00:38:01.858Z,35.6580
2022-12-31T00:38:12.939Z,35.6470
2022-12-31T00:38:24.019Z,35.7330
2022-12-31T00:38:35.096Z,35.7740
2022-12-31T00:38:46.158Z,35.7790
2022-12-31T00:38:57.230Z,35.8050
2022-12-31T00:39:08.324Z,35.7980
2022-12-31T00:39:19.380Z,35.7920
2022-12-31T00:39:30.444Z,35.7920
2022-12-31T00:39:41.503Z,35.7750
2022-12-31T00:39:52.579Z,35.7700
2022-12-31T00:40:03.616Z,35.7640
2022-12-31T00:40:14.688Z,35.7920
2022-12-31T00:40:25.744Z,35.8190
2022-12-31T00:40:36.808Z,35.8130
2022-12-31T00:40:47.893Z,35.8020
2022-12-31T00:40:58.954Z,35.7960
2022-12-31T00:41:10.024Z,35.7790
2022-12-31T00:41:21.089Z,35.7680
2022-12-31T00:41:32.181Z,35.7740
2022-12-31T00:41:43.258Z,35.7810
2022-12-31T00:41:54.307Z,35.7330
2022-12-31T00:42:05.405Z,35.7330
2022-12-31T00:42:16.475Z,35.7330
2022-12-31T00:42:27.532Z,35.7680
2022-12-31T00:42:38.607Z,35.8190
2022-12-31T00:42:49.678Z,35.8070
2022-12-31T00:43:00.783Z,35.7740
2022-12-31T00:43:11.867Z,35.7570
2022-12-31T00:43:22.942Z,35.7910
2022-12-31T00:43:34.000Z,35.8300
2022-12-31T00:43:45.075Z,35.8710
2022-12-31T00:43:56.141Z,35.9230
2022-12-31T00:44:07.220Z,35.9400
2022-12-31T00:44:18.292Z,35.9570
2022-12-31T00:44:29.357Z,35.9100
2022-12-31T00:44:40.413Z,35.8990
2022-12-31T00:44:51.487Z,35.9080
2022-12-31T00:45:02.555Z,35.9020
2022-12-31T00:45:13.647Z,35.8970
2022-12-31T00:45:24.736Z,35.8610
2022-12-31T00:45:35.804Z,35.8500
2022-12-31T00:45:46.896Z,35.8500
2022-12-31T00:45:57.995Z,35.8910
2022-12-31T00:46:09.071Z,35.9470
2022-12-31T00:46:20.204Z,35.9710
2022-12-31T00:46:31.328Z,35.9710
2022-12-31T00:46:45.312Z,35.9710
2022-12-31T00:46:56.409Z,36.0540
2022-12-31T00:47:07.473Z,36.0320
2022-12-31T00:47:18.547Z,36.0430
2022-12-31T00:47:29.618Z,36.0200
2022-12-31T00:47:40.682Z,36.0150
2022-12-31T00:47:51.750Z,36.0150
2022-12-31T00:48:02.868Z,35.9960
2022-12-31T00:48:13.942Z,35.9740
2022-12-31T00:48:25.043Z,35.9850
2022-12-31T00:48:36.134Z,36.0090
2022-12-31T00:48:47.194Z,36.0150
2022-12-31T00:48:58.284Z,35.9960
2022-12-31T00:49:09.362Z,35.9960
2022-12-31T00:49:20.445Z,35.9790
2022-12-31T00:49:31.535Z,35.9680
2022-12-31T00:49:42.601Z,35.9510
2022-12-31T00:49:53.662Z,35.9610
2022-12-31T00:50:04.718Z,35.9830
2022-12-31T00:50:15.766Z,36.0230
2022-12-31T00:50:26.847Z,36.0400
2022-12-31T00:50:37.908Z,36.0470
2022-12-31T00:50:48.980Z,36.0230
2022-12-31T00:51:00.042Z,36.0230
2022-12-31T00:51:11.101Z,36.0290
2022-12-31T00:51:22.167Z,36.0640
2022-12-31T00:51:33.221Z,36.0750
2022-12-31T00:51:44.305Z,36.0860
2022-12-31T00:51:55.363Z,36.0700
2022-12-31T00:52:06.443Z,36.0580
2022-12-31T00:52:17.502Z,36.0470
2022-12-31T00:52:28.572Z,36.0860
2022-12-31T00:52:39.648Z,36.0810
2022-12-31T00:52:50.749Z,36.0640
2022-12-31T00:53:01.800Z,36.0580
2022-12-31T00:53:12.915Z,36.0530
2022-12-31T00:53:23.997Z,36.0230
2022-12-31T00:53:35.071Z,36.0230
2022-12-31T00:53:46.177Z,36.0470
2022-12-31T00:53:57.252Z,36.0700
2022-12-31T00:54:08.331Z,36.0530
2022-12-31T00:54:19.411Z,36.0580
2022-12-31T00:54:30.472Z,36.0750
2022-12-31T00:54:41.548Z,36.0750
2022-12-31T00:54:52.612Z,36.0580
2022-12-31T00:55:03.697Z,36.0470
2022-12-31T00:55:14.763Z,36.0370
2022-12-31T00:55:25.837Z,36.0260
2022-12-31T00:55:36.898Z,36.0320
2022-12-31T00:55:47.989Z,36.0430
2022-12-31T00:55:59.051Z,36.0540
2022-12-31T00:56:10.124Z,36.0490
2022-12-31T00:56:21.187Z,36.0830
2022-12-31T00:56:32.289Z,36.1010
2022-12-31T00:56:43.332Z,36.0950
2022-12-31T00:56:54.374Z,36.0770
2022-12-31T00:57:05.463Z,36.0600
2022-12-31T00:57:16.551Z,36.0430
2022-12-31T00:57:27.635Z,36.0150
2022-12-31T00:57:38.703Z,36.0020
2022-12-31T00:57:49.771Z,36.0020
2022-12-31T00:58:00.867Z,35.9960
2022-12-31T00:58:11.935Z,35.9790
2022-12-31T00:58:23.046Z,35.9570
2022-12-31T00:58:34.128Z,35.9570
2022-12-31T00:58:45.197Z,35.9680
2022-12-31T00:58:56.272Z,35.9790
2022-12-31T00:59:07.331Z,35.9960
2022-12-31T00:59:18.418Z,36.0260
2022-12-31T00:59:29.491Z,36.0200
2022-12-31T00:59:40.547Z,36.0260
2022-12-31T00:59:51.610Z,36.0090
2022-12-31T01:00:02.694Z,36.0000
2022-12-31T01:00:13.776Z,36.0470
2022-12-31T01:00:24.827Z,36.0980
2022-12-31T01:00:35.911Z,36.1030
2022-12-31T01:00:47.005Z,36.0980
2022-12-31T01:00:58.128Z,36.0770
2022-12-31T01:01:09.465Z,36.0710
2022-12-31T01:01:20.993Z,36.0950
2022-12-31T01:01:32.464Z,36.0880
2022-12-31T01:01:43.894Z,36.1010
2022-12-31T01:01:55.107Z,36.0710
2022-12-31T01:02:06.338Z,36.0200
2022-12-31T01:02:17.776Z,35.9910
2022-12-31T01:02:29.259Z,36.0000
2022-12-31T01:02:40.672Z,35.9830
2022-12-31T01:02:52.057Z,35.9830
2022-12-31T01:03:03.314Z,36.0700
2022-12-31T01:03:14.752Z,36.1500
2022-12-31T01:03:25.912Z,36.1560
2022-12-31T01:03:36.981Z,36.1610
2022-12-31T01:03:48.050Z,36.1460
2022-12-31T01:03:59.107Z,36.1350
2022-12-31T01:04:10.183Z,36.1290
2022-12-31T01:04:21.235Z,36.1180
2022-12-31T01:04:32.305Z,36.1180
2022-12-31T01:04:43.387Z,36.1240
2022-12-31T01:04:54.449Z,36.1180
2022-12-31T01:05:05.525Z,36.1120
2022-12-31T01:05:16.608Z,36.1010
2022-12-31T01:05:27.667Z,36.0880
2022-12-31T01:05:38.748Z,36.0830
2022-12-31T01:05:49.827Z,36.0880
2022-12-31T01:06:00.905Z,36.1400
2022-12-31T01:06:11.984Z,36.1570
2022-12-31T01:06:23.080Z,36.1520
2022-12-31T01:06:34.131Z,36.1400
2022-12-31T01:06:45.190Z,36.1400
2022-12-31T01:06:56.370Z,36.1520
2022-12-31T01:07:07.442Z,36.1520
2022-12-31T01:07:18.508Z,36.1460
2022-12-31T01:07:29.579Z,36.1400
2022-12-31T01:07:40.627Z,36.1440
2022-12-31T01:07:51.692Z,36.1250
2022-12-31T01:08:02.922Z,36.1250
2022-12-31T01:08:14.001Z,36.1310
2022-12-31T01:08:25.087Z,36.1290
2022-12-31T01:08:36.220Z,36.1290
2022-12-31T01:08:47.242Z,36.1630
2022-12-31T01:08:58.307Z,36.1630
2022-12-31T01:09:09.371Z,36.1810
2022-12-31T01:09:20.449Z,36.1690
2022-12-31T01:09:31.517Z,36.1570
2022-12-31T01:09:42.583Z,36.1570
2022-12-31T01:09:53.672Z,36.1570
2022-12-31T01:10:04.740Z,36.1520
2022-12-31T01:10:15.831Z,36.1630
2022-12-31T01:10:26.904Z,36.1690
2022-12-31T01:10:37.968Z,36.1630
2022-12-31T01:10:49.037Z,36.1740
2022-12-31T01:11:00.118Z,36.1740
2022-12-31T01:11:11.188Z,36.1740
2022-12-31T01:11:22.850Z,36.1630
2022-12-31T01:11:34.204Z,36.2270
2022-12-31T01:11:45.287Z,36.2270
2022-12-31T01:11:56.357Z,36.2210
2022-12-31T01:12:07.428Z,36.1930
2022-12-31T01:12:18.487Z,36.1740
2022-12-31T01:12:29.557Z,36.1690
2022-12-31T01:12:40.629Z,36.1740
2022-12-31T01:12:51.700Z,36.1740
2022-12-31T01:13:02.771Z,36.1460
2022-12-31T01:13:13.815Z,36.1090
2022-12-31T01:13:24.874Z,36.1440
2022-12-31T01:13:35.938Z,36.1930
2022-12-31T01:13:47.051Z,36.2210
2022-12-31T01:13:58.146Z,36.2210
2022-12-31T01:14:09.225Z,36.1930
2022-12-31T01:14:20.261Z,36.1980
2022-12-31T01:14:31.319Z,36.1930
2022-12-31T01:14:42.378Z,36.1980
2022-12-31T01:14:53.437Z,36.1980
2022-12-31T01:15:04.508Z,36.1780
2022-12-31T01:15:15.603Z,36.1810
2022-12-31T01:15:26.713Z,36.1810
2022-12-31T01:15:37.821Z,36.1740
2022-12-31T01:15:48.960Z,36.1690
2022-12-31T01:16:00.150Z,36.1570
2022-12-31T01:16:11.348Z,36.1630
2022-12-31T01:16:22.399Z,36.1630
2022-12-31T01:16:33.476Z,36.1240
2022-12-31T01:16:44.556Z,36.1180
2022-12-31T01:16:55.621Z,36.1010
2022-12-31T01:17:06.695Z,36.1080
2022-12-31T01:17:17.755Z,36.1250
2022-12-31T01:17:28.792Z,36.1140
2022-12-31T01:17:39.886Z,36.1030
2022-12-31T01:17:50.959Z,36.0800
2022-12-31T01:18:02.034Z,36.1310
2022-12-31T01:18:13.144Z,36.1440
2022-12-31T01:18:24.202Z,36.1250
2022-12-31T01:18:35.269Z,36.1030
2022-12-31T01:18:46.363Z,36.0740
2022-12-31T01:18:57.467Z,36.0910
2022-12-31T01:19:09.214Z,36.1490
2022-12-31T01:19:20.269Z,36.1950
2022-12-31T01:19:31.344Z,36.2300
2022-12-31T01:19:42.407Z,36.2230
2022-12-31T01:19:53.478Z,36.2230
2022-12-31T01:20:04.552Z,36.1890
2022-12-31T01:20:15.635Z,36.2000
2022-12-31T01:20:26.696Z,36.2230
2022-12-31T01:20:37.766Z,36.2490
2022-12-31T01:20:48.830Z,36.2550
2022-12-31T01:20:59.907Z,36.2440
2022-12-31T01:21:10.975Z,36.2380
2022-12-31T01:21:22.002Z,36.2150
2022-12-31T01:21:33.047Z,36.2210
2022-12-31T01:21:44.122Z,36.2490
2022-12-31T01:21:55.201Z,36.2730
2022-12-31T01:22:06.278Z,36.2680
2022-12-31T01:22:17.357Z,36.2550
2022-12-31T01:22:28.430Z,36.2210
2022-12-31T01:22:39.487Z,36.1810
2022-12-31T01:22:50.553Z,36.1570
2022-12-31T01:23:01.612Z,36.1180
2022-12-31T01:23:12.721Z,36.1120
2022-12-31T01:23:23.759Z,36.0880
2022-12-31T01:23:34.812Z,36.0830
2022-12-31T01:23:45.903Z,36.1010
2022-12-31T01:23:56.967Z,36.1350
2022-12-31T01:24:08.055Z,36.1810
2022-12-31T01:24:19.147Z,36.2270
2022-12-31T01:24:30.212Z,36.2550
2022-12-31T01:24:41.282Z,36.2480
2022-12-31T01:24:52.352Z,36.2070
2022-12-31T01:25:03.424Z,36.1730
2022-12-31T01:25:14.509Z,36.1670
2022-12-31T01:25:25.567Z,36.1670
2022-12-31T01:25:36.639Z,36.1670
2022-12-31T01:25:47.696Z,36.1610
2022-12-31T01:25:58.817Z,36.2530
2022-12-31T01:26:09.877Z,36.3000
2022-12-31T01:26:20.937Z,36.3110
2022-12-31T01:26:32.035Z,36.3000
2022-12-31T01:26:43.089Z,36.2760
2022-12-31T01:26:54.160Z,36.2590
2022-12-31T01:27:05.231Z,36.2480
2022-12-31T01:27:16.304Z,36.2870
2022-12-31T01:27:27.367Z,36.3280
2022-12-31T01:27:38.428Z,36.3220
2022-12-31T01:27:49.501Z,36.3050
2022-12-31T01:28:00.567Z,36.3110
2022-12-31T01:28:11.629Z,36.3110
2022-12-31T01:28:22.687Z,36.3000
2022-12-31T01:28:33.760Z,36.2870
2022-12-31T01:28:44.815Z,36.2590
2022-12-31T01:28:55.875Z,36.2380
2022-12-31T01:29:06.933Z,36.2320
2022-12-31T01:29:18.028Z,36.2730
2022-12-31T01:29:29.097Z,36.3020
2022-12-31T01:29:40.156Z,36.3020
2022-12-31T01:29:51.226Z,36.3070
2022-12-31T01:30:02.271Z,36.3190
2022-12-31T01:30:13.352Z,36.3190
2022-12-31T01:30:24.389Z,36.2960
2022-12-31T01:30:35.489Z,36.2680
2022-12-31T01:30:46.586Z,36.2680
2022-12-31T01:30:57.675Z,36.2960
2022-12-31T01:31:08.850Z,36.2900
2022-12-31T01:31:20.041Z,36.3070
2022-12-31T01:31:31.260Z,36.2790
2022-12-31T01:31:42.308Z,36.2440
2022-12-31T01:31:53.371Z,36.2150
2022-12-31T01:32:04.444Z,36.1690
2022-12-31T01:32:15.519Z,36.1400
2022-12-31T01:32:26.599Z,36.1360
2022-12-31T01:32:37.677Z,36.1570
2022-12-31T01:32:48.727Z,36.2490
2022-12-31T01:32:59.812Z,36.2730
2022-12-31T01:33:10.867Z,36.3070
2022-12-31T01:33:21.960Z,36.3190
2022-12-31T01:33:33.027Z,36.3130
2022-12-31T01:33:44.079Z,36.3070
2022-12-31T01:33:55.184Z,36.2900
2022-12-31T01:34:06.236Z,36.2680
2022-12-31T01:34:17.304Z,36.2380
2022-12-31T01:34:28.411Z,36.2270
2022-12-31T01:34:39.462Z,36.2730
2022-12-31T01:34:50.560Z,36.3050
2022-12-31T01:35:01.617Z,36.3560
2022-12-31T01:35:12.676Z,36.3560
2022-12-31T01:35:23.761Z,36.3340
2022-12-31T01:35:34.826Z,36.3170
2022-12-31T01:35:45.899Z,36.3620
2022-12-31T01:35:56.990Z,36.3860
2022-12-31T01:36:08.085Z,36.3730
2022-12-31T01:36:25.380Z,36.3730
2022-12-31T01:36:36.114Z,36.5420
2022-12-31T01:36:47.181Z,36.5090
2022-12-31T01:36:58.219Z,36.4620
2022-12-31T01:37:09.294Z,36.4450
2022-12-31T01:37:20.366Z,36.4450
2022-12-31T01:37:31.432Z,36.3880
2022-12-31T01:37:42.496Z,36.3580
2022-12-31T01:37:53.581Z,36.3240
2022-12-31T01:38:04.653Z,36.3080
2022-12-31T01:38:15.848Z,36.2930
2022-12-31T01:38:26.917Z,36.2760
2022-12-31T01:38:37.991Z,36.2640
2022-12-31T01:38:49.067Z,36.2420
2022-12-31T01:39:00.132Z,36.2530
2022-12-31T01:39:11.219Z,36.3050
2022-12-31T01:39:22.259Z,36.3000
2022-12-31T01:39:33.349Z,36.2700
2022-12-31T01:39:44.396Z,36.2530
2022-12-31T01:39:55.456Z,36.2360
2022-12-31T01:40:06.524Z,36.2530
2022-12-31T01:40:17.581Z,36.2600
2022-12-31T01:40:28.664Z,36.2730
2022-12-31T01:40:39.720Z,36.2680
2022-12-31T01:40:50.796Z,36.2680
2022-12-31T01:41:01.866Z,36.3300
2022-12-31T01:41:12.939Z,36.3560
2022-12-31T01:41:24.008Z,36.3730
2022-12-31T01:41:35.091Z,36.3680
2022-12-31T01:41:46.144Z,36.3730
2022-12-31T01:41:57.187Z,36.3680
2022-12-31T01:42:08.220Z,36.3970
2022-12-31T01:42:19.281Z,36.4140
2022-12-31T01:42:30.356Z,36.3970
2022-12-31T01:42:41.434Z,36.3560
2022-12-31T01:42:52.500Z,36.3280
2022-12-31T01:43:03.583Z,36.3050
2022-12-31T01:43:14.630Z,36.2760
2022-12-31T01:43:25.686Z,36.2550
2022-12-31T01:43:36.748Z,36.2320
2022-12-31T01:43:47.824Z,36.2100
2022-12-31T01:43:58.888Z,36.1810
2022-12-31T01:44:09.962Z,36.1740
2022-12-31T01:44:21.038Z,36.1690
2022-12-31T01:44:32.117Z,36.1740
2022-12-31T01:44:43.307Z,36.1930
2022-12-31T01:44:54.378Z,36.2040
2022-12-31T01:45:05.426Z,36.2210
2022-12-31T01:45:16.494Z,36.2150
2022-12-31T01:45:27.564Z,36.2380
2022-12-31T01:45:38.629Z,36.2790
2022-12-31T01:45:49.697Z,36.3020
2022-12-31T01:46:00.846Z,36.3450
2022-12-31T01:46:11.979Z,36.3790
2022-12-31T01:46:23.123Z,36.3450
2022-12-31T01:46:34.200Z,36.3170
2022-12-31T01:46:45.298Z,36.2640
2022-12-31T01:46:56.377Z,36.2420
2022-12-31T01:47:07.421Z,36.2300
2022-12-31T01:47:18.512Z,36.2360
2022-12-31T01:47:29.558Z,36.2300
2022-12-31T01:47:40.637Z,36.2190
2022-12-31T01:47:51.703Z,36.2590
2022-12-31T01:48:02.780Z,36.2810
2022-12-31T01:48:13.841Z,36.2760
2022-12-31T01:48:24.909Z,36.2700
2022-12-31T01:48:35.971Z,36.2640
2022-12-31T01:48:47.041Z,36.2760
2022-12-31T01:48:58.115Z,36.2850
2022-12-31T01:49:09.187Z,36.2960
2022-12-31T01:49:20.270Z,36.2850
2022-12-31T01:49:31.339Z,36.2900
2022-12-31T01:49:42.404Z,36.3190
2022-12-31T01:49:53.527Z,36.3600
2022-12-31T01:50:04.590Z,36.3650
2022-12-31T01:50:15.653Z,36.3350
2022-12-31T01:50:26.724Z,36.3070
2022-12-31T01:50:37.777Z,36.3190
2022-12-31T01:50:48.845Z,36.3600
2022-12-31T01:50:59.910Z,36.3820
2022-12-31T01:51:10.997Z,36.3820
2022-12-31T01:51:22.067Z,36.3880
2022-12-31T01:51:33.116Z,36.3760
2022-12-31T01:51:44.191Z,36.3820
2022-12-31T01:51:55.267Z,36.3650
2022-12-31T01:52:06.307Z,36.3710
2022-12-31T01:52:17.351Z,36.4050
2022-12-31T01:52:28.442Z,36.4220
2022-12-31T01:52:39.529Z,36.4330
2022-12-31T01:52:50.608Z,36.4310
2022-12-31T01:53:01.686Z,36.4140
2022-12-31T01:53:12.738Z,36.4370
2022-12-31T01:53:23.830Z,36.4370
2022-12-31T01:53:34.871Z,36.4370
2022-12-31T01:53:45.928Z,36.4090
2022-12-31T01:53:57.012Z,36.3860
2022-12-31T01:54:08.061Z,36.3920
2022-12-31T01:54:19.128Z,36.3920
2022-12-31T01:54:30.192Z,36.4140
2022-12-31T01:54:41.279Z,36.4140
2022-12-31T01:54:52.331Z,36.3790
2022-12-31T01:55:03.444Z,36.3860
2022-12-31T01:55:14.515Z,36.4200
2022-12-31T01:55:25.578Z,36.4540
2022-12-31T01:55:36.652Z,36.4600
2022-12-31T01:55:47.741Z,36.4650
2022-12-31T01:55:58.805Z,36.4540
2022-12-31T01:56:09.868Z,36.4480
2022-12-31T01:56:20.939Z,36.4370
2022-12-31T01:56:32.012Z,36.4030
2022-12-31T01:56:43.076Z,36.3560
2022-12-31T01:56:54.149Z,36.3420
2022-12-31T01:57:05.277Z,36.4220
2022-12-31T01:57:16.317Z,36.4800
2022-12-31T01:57:27.431Z,36.4750
2022-12-31T01:57:38.549Z,36.4910
2022-12-31T01:57:49.598Z,36.4910
2022-12-31T01:58:00.679Z,36.5030
2022-12-31T01:58:11.743Z,36.5030
2022-12-31T01:58:22.799Z,36.4910
2022-12-31T01:58:33.856Z,36.5030
2022-12-31T01:58:44.921Z,36.5090
2022-12-31T01:58:55.978Z,36.5090
2022-12-31T01:59:07.041Z,36.4910
2022-12-31T01:59:18.115Z,36.4500
2022-12-31T01:59:29.185Z,36.4800
2022-12-31T01:59:40.294Z,36.5090
2022-12-31T01:59:51.381Z,36.5200
2022-12-31T02:00:02.477Z,36.5090
2022-12-31T02:00:13.566Z,36.5200
2022-12-31T02:00:24.643Z,36.4970
2022-12-31T02:00:35.703Z,36.4800
2022-12-31T02:00:46.803Z,36.4750
2022-12-31T02:00:57.932Z,36.5030
2022-12-31T02:01:09.016Z,36.5120
2022-12-31T02:01:20.205Z,36.4840
2022-12-31T02:01:31.451Z,36.4840
2022-12-31T02:01:42.718Z,36.5010
2022-12-31T02:01:54.147Z,36.5120
2022-12-31T02:02:05.765Z,36.5520
2022-12-31T02:02:17.162Z,36.5700
2022-12-31T02:02:28.409Z,36.5610
2022-12-31T02:02:39.669Z,36.5480
2022-12-31T02:02:51.197Z,36.5480
2022-12-31T02:03:02.588Z,36.5420
2022-12-31T02:03:13.781Z,36.5480
2022-12-31T02:03:24.908Z,36.5480
2022-12-31T02:03:35.947Z,36.5480
2022-12-31T02:03:47.015Z,36.5480
2022-12-31T02:03:58.079Z,36.5370
2022-12-31T02:04:09.137Z,36.5420
2022-12-31T02:04:20.207Z,36.5250
2022-12-31T02:04:31.272Z,36.5120
2022-12-31T02:04:42.317Z,36.4950
2022-12-31T02:04:53.407Z,36.5010
2022-12-31T02:05:04.476Z,36.5030
2022-12-31T02:05:15.568Z,36.5030
2022-12-31T02:05:26.627Z,36.4860
2022-12-31T02:05:37.677Z,36.4600
2022-12-31T02:05:48.751Z,36.4260
2022-12-31T02:05:59.829Z,36.3790
2022-12-31T02:06:10.913Z,36.3510
2022-12-31T02:06:21.988Z,36.3390
2022-12-31T02:06:33.028Z,36.3510
2022-12-31T02:06:44.107Z,36.3730
2022-12-31T02:06:55.147Z,36.4480
2022-12-31T02:07:06.213Z,36.4650
2022-12-31T02:07:17.268Z,36.4650
2022-12-31T02:07:28.341Z,36.4370
2022-12-31T02:07:39.400Z,36.4480
2022-12-31T02:07:50.476Z,36.4310
2022-12-31T02:08:01.537Z,36.4260
2022-12-31T02:08:12.594Z,36.4140
2022-12-31T02:08:23.665Z,36.4430
2022-12-31T02:08:41.577Z,36.4720
2022-12-31T02:08:51.696Z,36.6760
2022-12-31T02:09:02.773Z,36.6040
2022-12-31T02:09:13.847Z,36.5350
2022-12-31T02:09:24.921Z,36.5550
2022-12-31T02:09:35.976Z,36.5780
2022-12-31T02:09:47.037Z,36.5720
2022-12-31T02:09:58.121Z,36.5310
2022-12-31T02:10:09.213Z,36.4620
2022-12-31T02:10:20.338Z,36.3940
2022-12-31T02:10:31.401Z,36.3750
2022-12-31T02:10:42.505Z,36.3990
2022-12-31T02:10:53.556Z,36.4110
2022-12-31T02:11:04.615Z,36.3940
2022-12-31T02:11:15.666Z,36.4050
2022-12-31T02:11:26.735Z,36.4390
2022-12-31T02:11:37.794Z,36.4720
2022-12-31T02:11:48.856Z,36.4430
2022-12-31T02:11:59.933Z,36.4430
2022-12-31T02:12:10.960Z,36.4430
2022-12-31T02:12:22.056Z,36.4780
2022-12-31T02:12:33.117Z,36.5120
2022-12-31T02:12:44.213Z,36.5120
2022-12-31T02:12:55.281Z,36.4650
2022-12-31T02:13:06.317Z,36.4480
2022-12-31T02:13:17.382Z,36.4570
2022-12-31T02:13:28.445Z,36.4600
2022-12-31T02:13:39.487Z,36.4570
2022-12-31T02:13:53.745Z,36.4460
2022-12-31T02:14:07.517Z,36.6380
2022-12-31T02:14:18.592Z,36.6010
2022-12-31T02:14:29.688Z,36.5400
2022-12-31T02:14:40.756Z,36.4950
2022-12-31T02:14:51.807Z,36.4600